sensor_id;sensor_type;location;lat;lon;timestamp;temperature;humidity
32534;DHT22;18973;48.580;8.912;2022-07-29T00:02:25;19.70;99.90
32534;DHT22;18973;48.580;8.912;2022-07-29T00:04:51;19.80;99.90
32534;DHT22;18973;48.580;8.912;2022-07-29T00:07:17;19.80;99.90
32534;DHT22;18973;48.580;8.912;2022-07-29T00:09:43;19.80;99.90
32534;DHT22;18973;48.580;8.912;2022-07-29T00:12:08;19.60;99.90
32534;DHT22;18973;48.580;8.912;2022-07-29T00:14:34;19.40;99.90
32534;DHT22;18973;48.580;8.912;2022-07-29T00:17:00;19.50;99.90
32534;DHT22;18973;48.580;8.912;2022-07-29T00:19:26;19.60;99.90
32534;DHT22;18973;48.580;8.912;2022-07-29T00:21:52;19.60;99.90
32534;DHT22;18973;48.580;8.912;2022-07-29T00:24:17;19.70;99.90
32534;DHT22;18973;48.580;8.912;2022-07-29T00:26:43;19.50;99.90
32534;DHT22;18973;48.580;8.912;2022-07-29T00:29:09;19.50;99.90
32534;DHT22;18973;48.580;8.912;2022-07-29T00:31:34;19.40;99.90
32534;DHT22;18973;48.580;8.912;2022-07-29T00:34:00;19.30;99.90
32534;DHT22;18973;48.580;8.912;2022-07-29T00:36:26;19.20;99.90
32534;DHT22;18973;48.580;8.912;2022-07-29T00:38:52;19.20;99.90
32534;DHT22;18973;48.580;8.912;2022-07-29T00:41:18;19.20;99.90
32534;DHT22;18973;48.580;8.912;2022-07-29T00:43:44;19.20;99.90
32534;DHT22;18973;48.580;8.912;2022-07-29T00:46:10;19.20;99.90
32534;DHT22;18973;48.580;8.912;2022-07-29T00:48:36;19.20;99.90
32534;DHT22;18973;48.580;8.912;2022-07-29T00:51:04;19.40;99.90
32534;DHT22;18973;48.580;8.912;2022-07-29T00:53:31;19.30;99.90
32534;DHT22;18973;48.580;8.912;2022-07-29T00:55:57;19.30;99.90
32534;DHT22;18973;48.580;8.912;2022-07-29T00:58:24;19.40;99.90
32534;DHT22;18973;48.580;8.912;2022-07-29T01:00:52;19.40;99.90
32534;DHT22;18973;48.580;8.912;2022-07-29T01:03:18;19.20;99.90
32534;DHT22;18973;48.580;8.912;2022-07-29T01:05:45;19.30;99.90
32534;DHT22;18973;48.580;8.912;2022-07-29T01:08:13;19.20;99.90
32534;DHT22;18973;48.580;8.912;2022-07-29T01:10:40;19.20;99.90
32534;DHT22;18973;48.580;8.912;2022-07-29T01:13:07;19.10;99.90
32534;DHT22;18973;48.580;8.912;2022-07-29T01:15:53;19.20;99.90
32534;DHT22;18973;48.580;8.912;2022-07-29T01:18:28;19.00;99.90
32534;DHT22;18973;48.580;8.912;2022-07-29T01:21:04;19.00;99.90
32534;DHT22;18973;48.580;8.912;2022-07-29T01:26:47;18.90;99.90
32534;DHT22;18973;48.580;8.912;2022-07-29T01:29:30;18.70;99.90
32534;DHT22;18973;48.580;8.912;2022-07-29T01:32:10;18.70;99.90
32534;DHT22;18973;48.580;8.912;2022-07-29T01:34:52;18.60;99.90
32534;DHT22;18973;48.580;8.912;2022-07-29T01:39:52;18.80;99.90
32534;DHT22;18973;48.580;8.912;2022-07-29T01:42:38;18.80;99.90
32534;DHT22;18973;48.580;8.912;2022-07-29T01:45:12;18.90;99.90
32534;DHT22;18973;48.580;8.912;2022-07-29T01:50:20;18.80;99.90
32534;DHT22;18973;48.580;8.912;2022-07-29T01:53:00;18.70;99.90
32534;DHT22;18973;48.580;8.912;2022-07-29T01:55:32;18.60;99.90
32534;DHT22;18973;48.580;8.912;2022-07-29T01:58:01;18.60;99.90
32534;DHT22;18973;48.580;8.912;2022-07-29T02:00:29;18.70;99.90
32534;DHT22;18973;48.580;8.912;2022-07-29T02:02:59;18.70;99.90
32534;DHT22;18973;48.580;8.912;2022-07-29T02:05:27;18.60;99.90
32534;DHT22;18973;48.580;8.912;2022-07-29T02:07:55;18.50;99.90
32534;DHT22;18973;48.580;8.912;2022-07-29T02:10:27;18.40;99.90
32534;DHT22;18973;48.580;8.912;2022-07-29T02:12:56;18.30;99.90
32534;DHT22;18973;48.580;8.912;2022-07-29T02:15:28;18.40;99.90
32534;DHT22;18973;48.580;8.912;2022-07-29T02:18:20;18.40;99.90
32534;DHT22;18973;48.580;8.912;2022-07-29T02:20:48;18.50;99.90
32534;DHT22;18973;48.580;8.912;2022-07-29T02:23:16;18.30;99.90
32534;DHT22;18973;48.580;8.912;2022-07-29T02:25:43;18.40;99.90
32534;DHT22;18973;48.580;8.912;2022-07-29T02:28:10;18.20;99.90
32534;DHT22;18973;48.580;8.912;2022-07-29T02:30:40;18.20;99.90
32534;DHT22;18973;48.580;8.912;2022-07-29T02:33:06;18.20;99.90
32534;DHT22;18973;48.580;8.912;2022-07-29T02:35:33;18.20;99.90
32534;DHT22;18973;48.580;8.912;2022-07-29T02:37:59;18.20;99.90
32534;DHT22;18973;48.580;8.912;2022-07-29T02:40:44;18.10;99.90
32534;DHT22;18973;48.580;8.912;2022-07-29T02:43:11;18.10;99.90
32534;DHT22;18973;48.580;8.912;2022-07-29T02:45:37;18.10;99.90
32534;DHT22;18973;48.580;8.912;2022-07-29T02:48:10;18.10;99.90
32534;DHT22;18973;48.580;8.912;2022-07-29T02:50:44;18.00;99.90
32534;DHT22;18973;48.580;8.912;2022-07-29T02:53:18;18.00;99.90
32534;DHT22;18973;48.580;8.912;2022-07-29T02:55:58;18.00;99.90
32534;DHT22;18973;48.580;8.912;2022-07-29T02:58:31;17.90;99.90
32534;DHT22;18973;48.580;8.912;2022-07-29T03:01:10;17.90;99.90
32534;DHT22;18973;48.580;8.912;2022-07-29T03:03:38;17.80;99.90
32534;DHT22;18973;48.580;8.912;2022-07-29T03:06:05;17.80;99.90
32534;DHT22;18973;48.580;8.912;2022-07-29T03:08:32;17.80;99.90
32534;DHT22;18973;48.580;8.912;2022-07-29T03:10:59;17.80;99.90
32534;DHT22;18973;48.580;8.912;2022-07-29T03:13:25;17.70;99.90
32534;DHT22;18973;48.580;8.912;2022-07-29T03:15:52;17.70;99.90
32534;DHT22;18973;48.580;8.912;2022-07-29T03:18:18;17.70;99.90
32534;DHT22;18973;48.580;8.912;2022-07-29T03:20:44;17.90;99.90
32534;DHT22;18973;48.580;8.912;2022-07-29T03:23:10;17.80;99.90
32534;DHT22;18973;48.580;8.912;2022-07-29T03:25:36;17.80;99.90
32534;DHT22;18973;48.580;8.912;2022-07-29T03:28:02;17.80;99.90
32534;DHT22;18973;48.580;8.912;2022-07-29T03:30:28;17.70;99.90
32534;DHT22;18973;48.580;8.912;2022-07-29T03:32:56;17.60;99.90
32534;DHT22;18973;48.580;8.912;2022-07-29T03:35:22;17.70;99.90
32534;DHT22;18973;48.580;8.912;2022-07-29T03:37:48;17.60;99.90
32534;DHT22;18973;48.580;8.912;2022-07-29T03:40:21;17.70;99.90
32534;DHT22;18973;48.580;8.912;2022-07-29T03:42:49;17.60;99.90
32534;DHT22;18973;48.580;8.912;2022-07-29T03:45:18;17.50;99.90
32534;DHT22;18973;48.580;8.912;2022-07-29T03:47:50;17.60;99.90
32534;DHT22;18973;48.580;8.912;2022-07-29T03:50:18;17.50;99.90
32534;DHT22;18973;48.580;8.912;2022-07-29T03:52:46;17.50;99.90
32534;DHT22;18973;48.580;8.912;2022-07-29T03:55:12;17.60;99.90
32534;DHT22;18973;48.580;8.912;2022-07-29T03:57:39;17.70;99.90
32534;DHT22;18973;48.580;8.912;2022-07-29T04:00:07;17.80;99.90
32534;DHT22;18973;48.580;8.912;2022-07-29T04:02:33;17.90;99.90
32534;DHT22;18973;48.580;8.912;2022-07-29T04:04:59;17.80;99.90
32534;DHT22;18973;48.580;8.912;2022-07-29T04:07:25;17.60;99.90
32534;DHT22;18973;48.580;8.912;2022-07-29T04:09:51;17.70;99.90
32534;DHT22;18973;48.580;8.912;2022-07-29T04:12:17;17.70;99.90
32534;DHT22;18973;48.580;8.912;2022-07-29T04:14:42;17.70;99.90
32534;DHT22;18973;48.580;8.912;2022-07-29T04:17:08;17.70;99.90
32534;DHT22;18973;48.580;8.912;2022-07-29T04:19:34;17.80;99.90
32534;DHT22;18973;48.580;8.912;2022-07-29T04:22:00;17.70;99.90
32534;DHT22;18973;48.580;8.912;2022-07-29T04:24:26;17.80;99.90
32534;DHT22;18973;48.580;8.912;2022-07-29T04:26:52;17.80;99.90
32534;DHT22;18973;48.580;8.912;2022-07-29T04:29:18;17.90;99.90
32534;DHT22;18973;48.580;8.912;2022-07-29T04:31:45;18.00;99.90
32534;DHT22;18973;48.580;8.912;2022-07-29T04:34:11;18.00;99.90
32534;DHT22;18973;48.580;8.912;2022-07-29T04:36:37;18.20;99.90
32534;DHT22;18973;48.580;8.912;2022-07-29T04:39:04;18.40;99.90
32534;DHT22;18973;48.580;8.912;2022-07-29T04:41:29;18.50;99.90
32534;DHT22;18973;48.580;8.912;2022-07-29T04:43:56;18.50;99.90
32534;DHT22;18973;48.580;8.912;2022-07-29T04:46:22;18.30;99.90
32534;DHT22;18973;48.580;8.912;2022-07-29T04:48:48;18.40;99.90
32534;DHT22;18973;48.580;8.912;2022-07-29T04:51:15;18.60;99.90
32534;DHT22;18973;48.580;8.912;2022-07-29T04:53:41;18.70;99.90
32534;DHT22;18973;48.580;8.912;2022-07-29T04:56:06;18.70;99.90
32534;DHT22;18973;48.580;8.912;2022-07-29T04:58:34;18.90;99.90
32534;DHT22;18973;48.580;8.912;2022-07-29T05:01:00;19.00;99.90
32534;DHT22;18973;48.580;8.912;2022-07-29T05:03:26;19.00;99.90
32534;DHT22;18973;48.580;8.912;2022-07-29T05:05:52;19.00;99.90
32534;DHT22;18973;48.580;8.912;2022-07-29T05:08:18;19.00;99.90
32534;DHT22;18973;48.580;8.912;2022-07-29T05:10:43;19.00;99.90
32534;DHT22;18973;48.580;8.912;2022-07-29T05:13:09;19.20;99.90
32534;DHT22;18973;48.580;8.912;2022-07-29T05:15:35;19.40;99.90
32534;DHT22;18973;48.580;8.912;2022-07-29T05:18:01;19.40;99.90
32534;DHT22;18973;48.580;8.912;2022-07-29T05:20:27;19.60;99.90
32534;DHT22;18973;48.580;8.912;2022-07-29T05:22:58;19.70;99.90
32534;DHT22;18973;48.580;8.912;2022-07-29T05:25:25;19.80;99.90
32534;DHT22;18973;48.580;8.912;2022-07-29T05:27:52;19.90;99.90
32534;DHT22;18973;48.580;8.912;2022-07-29T05:30:17;20.00;99.90
32534;DHT22;18973;48.580;8.912;2022-07-29T05:32:43;20.10;99.90
32534;DHT22;18973;48.580;8.912;2022-07-29T05:35:09;20.10;99.90
32534;DHT22;18973;48.580;8.912;2022-07-29T05:37:35;20.10;99.90
32534;DHT22;18973;48.580;8.912;2022-07-29T05:40:02;20.20;99.90
32534;DHT22;18973;48.580;8.912;2022-07-29T05:42:28;20.30;99.90
32534;DHT22;18973;48.580;8.912;2022-07-29T05:44:54;20.40;99.90
32534;DHT22;18973;48.580;8.912;2022-07-29T05:47:20;20.40;99.90
32534;DHT22;18973;48.580;8.912;2022-07-29T05:49:46;20.50;99.90
32534;DHT22;18973;48.580;8.912;2022-07-29T05:52:12;20.50;99.90
32534;DHT22;18973;48.580;8.912;2022-07-29T05:54:39;20.60;99.90
32534;DHT22;18973;48.580;8.912;2022-07-29T05:57:05;20.60;99.90
32534;DHT22;18973;48.580;8.912;2022-07-29T05:59:38;20.40;99.90
32534;DHT22;18973;48.580;8.912;2022-07-29T06:02:04;20.50;99.90
32534;DHT22;18973;48.580;8.912;2022-07-29T06:04:31;20.50;99.90
32534;DHT22;18973;48.580;8.912;2022-07-29T06:06:57;20.50;99.90
32534;DHT22;18973;48.580;8.912;2022-07-29T06:09:23;20.60;99.90
32534;DHT22;18973;48.580;8.912;2022-07-29T06:11:48;20.70;99.90
32534;DHT22;18973;48.580;8.912;2022-07-29T06:14:14;20.60;99.90
32534;DHT22;18973;48.580;8.912;2022-07-29T06:16:40;20.60;99.90
32534;DHT22;18973;48.580;8.912;2022-07-29T06:19:06;20.70;99.90
32534;DHT22;18973;48.580;8.912;2022-07-29T06:21:32;20.80;99.90
32534;DHT22;18973;48.580;8.912;2022-07-29T06:23:59;20.70;99.90
32534;DHT22;18973;48.580;8.912;2022-07-29T06:26:25;20.70;99.90
32534;DHT22;18973;48.580;8.912;2022-07-29T06:28:51;20.70;99.90
32534;DHT22;18973;48.580;8.912;2022-07-29T06:31:16;20.80;99.90
32534;DHT22;18973;48.580;8.912;2022-07-29T06:33:42;21.00;99.90
32534;DHT22;18973;48.580;8.912;2022-07-29T06:36:08;21.00;99.90
32534;DHT22;18973;48.580;8.912;2022-07-29T06:38:34;21.00;99.90
32534;DHT22;18973;48.580;8.912;2022-07-29T06:41:00;21.10;99.90
32534;DHT22;18973;48.580;8.912;2022-07-29T06:43:37;21.20;99.90
32534;DHT22;18973;48.580;8.912;2022-07-29T06:46:08;21.30;99.90
32534;DHT22;18973;48.580;8.912;2022-07-29T06:48:35;21.30;99.90
32534;DHT22;18973;48.580;8.912;2022-07-29T06:51:04;21.30;99.90
32534;DHT22;18973;48.580;8.912;2022-07-29T06:53:32;21.20;99.90
32534;DHT22;18973;48.580;8.912;2022-07-29T06:55:58;21.20;99.90
32534;DHT22;18973;48.580;8.912;2022-07-29T06:58:26;21.20;99.90
32534;DHT22;18973;48.580;8.912;2022-07-29T07:00:51;21.30;99.90
32534;DHT22;18973;48.580;8.912;2022-07-29T07:03:18;21.40;99.90
32534;DHT22;18973;48.580;8.912;2022-07-29T07:05:44;21.50;99.90
32534;DHT22;18973;48.580;8.912;2022-07-29T07:08:14;21.40;99.90
32534;DHT22;18973;48.580;8.912;2022-07-29T07:10:42;21.60;99.90
32534;DHT22;18973;48.580;8.912;2022-07-29T07:13:08;21.50;99.90
32534;DHT22;18973;48.580;8.912;2022-07-29T07:15:35;21.60;99.90
32534;DHT22;18973;48.580;8.912;2022-07-29T07:18:02;21.70;99.90
32534;DHT22;18973;48.580;8.912;2022-07-29T07:20:28;21.80;99.90
32534;DHT22;18973;48.580;8.912;2022-07-29T07:22:54;21.90;99.90
32534;DHT22;18973;48.580;8.912;2022-07-29T07:25:20;22.00;99.90
32534;DHT22;18973;48.580;8.912;2022-07-29T07:27:46;22.10;99.90
32534;DHT22;18973;48.580;8.912;2022-07-29T07:30:12;22.10;99.90
32534;DHT22;18973;48.580;8.912;2022-07-29T07:32:38;22.00;99.90
32534;DHT22;18973;48.580;8.912;2022-07-29T07:35:06;22.10;99.90
32534;DHT22;18973;48.580;8.912;2022-07-29T07:37:32;22.20;99.90
32534;DHT22;18973;48.580;8.912;2022-07-29T07:39:58;22.30;99.90
32534;DHT22;18973;48.580;8.912;2022-07-29T07:42:24;22.30;99.90
32534;DHT22;18973;48.580;8.912;2022-07-29T07:44:50;22.40;99.90
32534;DHT22;18973;48.580;8.912;2022-07-29T07:47:16;22.50;99.90
32534;DHT22;18973;48.580;8.912;2022-07-29T07:49:49;22.60;99.90
32534;DHT22;18973;48.580;8.912;2022-07-29T07:52:16;22.80;99.90
32534;DHT22;18973;48.580;8.912;2022-07-29T07:54:42;22.90;99.90
32534;DHT22;18973;48.580;8.912;2022-07-29T07:57:09;23.10;99.90
32534;DHT22;18973;48.580;8.912;2022-07-29T07:59:35;23.20;99.90
32534;DHT22;18973;48.580;8.912;2022-07-29T08:02:01;23.40;99.90
32534;DHT22;18973;48.580;8.912;2022-07-29T08:04:26;23.40;99.90
32534;DHT22;18973;48.580;8.912;2022-07-29T08:06:52;23.40;99.90
32534;DHT22;18973;48.580;8.912;2022-07-29T08:09:21;23.40;99.90
32534;DHT22;18973;48.580;8.912;2022-07-29T08:11:47;23.40;99.90
32534;DHT22;18973;48.580;8.912;2022-07-29T08:14:12;23.50;99.90
32534;DHT22;18973;48.580;8.912;2022-07-29T08:16:39;23.50;99.90
32534;DHT22;18973;48.580;8.912;2022-07-29T08:19:09;23.70;99.90
32534;DHT22;18973;48.580;8.912;2022-07-29T08:21:35;23.90;99.90
32534;DHT22;18973;48.580;8.912;2022-07-29T08:24:01;24.10;99.90
32534;DHT22;18973;48.580;8.912;2022-07-29T08:26:46;24.30;99.90
32534;DHT22;18973;48.580;8.912;2022-07-29T08:29:12;24.60;99.90
32534;DHT22;18973;48.580;8.912;2022-07-29T08:31:38;24.80;99.90
32534;DHT22;18973;48.580;8.912;2022-07-29T08:34:04;25.00;99.90
32534;DHT22;18973;48.580;8.912;2022-07-29T08:36:31;25.20;99.90
32534;DHT22;18973;48.580;8.912;2022-07-29T08:38:58;25.30;99.90
32534;DHT22;18973;48.580;8.912;2022-07-29T08:41:24;25.50;99.90
32534;DHT22;18973;48.580;8.912;2022-07-29T08:43:50;25.60;99.90
32534;DHT22;18973;48.580;8.912;2022-07-29T08:46:18;25.70;99.90
32534;DHT22;18973;48.580;8.912;2022-07-29T08:48:44;25.90;99.90
32534;DHT22;18973;48.580;8.912;2022-07-29T08:51:20;26.00;99.90
32534;DHT22;18973;48.580;8.912;2022-07-29T08:53:47;26.30;99.90
32534;DHT22;18973;48.580;8.912;2022-07-29T08:56:17;26.50;99.90
32534;DHT22;18973;48.580;8.912;2022-07-29T08:58:45;26.60;99.90
32534;DHT22;18973;48.580;8.912;2022-07-29T09:01:14;26.80;99.90
32534;DHT22;18973;48.580;8.912;2022-07-29T09:03:43;26.80;99.90
32534;DHT22;18973;48.580;8.912;2022-07-29T09:06:13;26.90;99.90
32534;DHT22;18973;48.580;8.912;2022-07-29T09:08:40;27.00;99.90
32534;DHT22;18973;48.580;8.912;2022-07-29T09:11:06;27.20;99.90
32534;DHT22;18973;48.580;8.912;2022-07-29T09:13:33;27.10;99.60
32534;DHT22;18973;48.580;8.912;2022-07-29T09:15:59;27.20;99.20
32534;DHT22;18973;48.580;8.912;2022-07-29T09:18:43;27.20;98.90
32534;DHT22;18973;48.580;8.912;2022-07-29T09:21:14;27.30;97.50
32534;DHT22;18973;48.580;8.912;2022-07-29T09:26:53;26.80;98.90
32534;DHT22;18973;48.580;8.912;2022-07-29T09:29:21;26.80;99.30
32534;DHT22;18973;48.580;8.912;2022-07-29T09:31:51;26.90;98.50
32534;DHT22;18973;48.580;8.912;2022-07-29T09:34:23;26.90;98.30
32534;DHT22;18973;48.580;8.912;2022-07-29T09:36:50;26.90;97.70
32534;DHT22;18973;48.580;8.912;2022-07-29T09:39:36;27.00;96.90
32534;DHT22;18973;48.580;8.912;2022-07-29T09:42:04;26.90;97.70
32534;DHT22;18973;48.580;8.912;2022-07-29T09:44:47;26.90;97.80
32534;DHT22;18973;48.580;8.912;2022-07-29T09:47:14;27.00;97.10
32534;DHT22;18973;48.580;8.912;2022-07-29T09:49:57;27.00;97.90
32534;DHT22;18973;48.580;8.912;2022-07-29T09:52:26;27.20;98.50
32534;DHT22;18973;48.580;8.912;2022-07-29T09:54:52;27.50;96.40
32534;DHT22;18973;48.580;8.912;2022-07-29T09:57:26;27.60;96.20
32534;DHT22;18973;48.580;8.912;2022-07-29T10:00:06;27.70;96.60
32534;DHT22;18973;48.580;8.912;2022-07-29T10:02:38;27.80;95.70
32534;DHT22;18973;48.580;8.912;2022-07-29T10:05:09;27.90;95.90
32534;DHT22;18973;48.580;8.912;2022-07-29T10:07:54;28.10;96.20
32534;DHT22;18973;48.580;8.912;2022-07-29T10:10:40;28.20;95.00
32534;DHT22;18973;48.580;8.912;2022-07-29T10:13:12;28.30;95.20
32534;DHT22;18973;48.580;8.912;2022-07-29T10:15:40;28.50;95.00
32534;DHT22;18973;48.580;8.912;2022-07-29T10:18:11;28.50;94.60
32534;DHT22;18973;48.580;8.912;2022-07-29T10:20:38;28.20;94.20
32534;DHT22;18973;48.580;8.912;2022-07-29T10:23:04;28.30;94.70
32534;DHT22;18973;48.580;8.912;2022-07-29T10:25:31;28.40;93.40
32534;DHT22;18973;48.580;8.912;2022-07-29T10:27:57;28.30;93.50
32534;DHT22;18973;48.580;8.912;2022-07-29T10:30:24;28.50;94.60
32534;DHT22;18973;48.580;8.912;2022-07-29T10:43:43;28.00;93.30
32534;DHT22;18973;48.580;8.912;2022-07-29T10:46:11;27.70;92.40
32534;DHT22;18973;48.580;8.912;2022-07-29T10:49:10;27.30;92.80
32534;DHT22;18973;48.580;8.912;2022-07-29T10:52:06;26.90;95.90
32534;DHT22;18973;48.580;8.912;2022-07-29T10:59:41;25.00;99.90
32534;DHT22;18973;48.580;8.912;2022-07-29T11:04:59;23.50;99.90
32534;DHT22;18973;48.580;8.912;2022-07-29T11:07:26;22.60;99.90
32534;DHT22;18973;48.580;8.912;2022-07-29T11:15:08;22.20;99.90
32534;DHT22;18973;48.580;8.912;2022-07-29T11:20:41;21.80;99.90
32534;DHT22;18973;48.580;8.912;2022-07-29T11:23:30;21.70;99.90
32534;DHT22;18973;48.580;8.912;2022-07-29T11:26:20;21.70;99.90
32534;DHT22;18973;48.580;8.912;2022-07-29T11:31:38;21.60;99.90
32534;DHT22;18973;48.580;8.912;2022-07-29T11:34:27;21.60;99.90
32534;DHT22;18973;48.580;8.912;2022-07-29T11:39:37;21.20;99.90
32534;DHT22;18973;48.580;8.912;2022-07-29T11:47:57;20.80;99.90
32534;DHT22;18973;48.580;8.912;2022-07-29T11:50:33;20.60;99.90
32534;DHT22;18973;48.580;8.912;2022-07-29T11:53:00;20.60;99.90
32534;DHT22;18973;48.580;8.912;2022-07-29T11:55:26;20.70;99.90
32534;DHT22;18973;48.580;8.912;2022-07-29T11:57:59;20.80;99.90
32534;DHT22;18973;48.580;8.912;2022-07-29T12:02:58;21.30;99.90
32534;DHT22;18973;48.580;8.912;2022-07-29T12:05:45;21.60;99.90
32534;DHT22;18973;48.580;8.912;2022-07-29T12:08:14;21.80;99.90
32534;DHT22;18973;48.580;8.912;2022-07-29T12:10:40;21.90;99.90
32534;DHT22;18973;48.580;8.912;2022-07-29T12:13:07;21.90;99.90
32534;DHT22;18973;48.580;8.912;2022-07-29T12:15:33;22.10;99.90
32534;DHT22;18973;48.580;8.912;2022-07-29T12:18:09;22.10;99.90
32534;DHT22;18973;48.580;8.912;2022-07-29T12:20:35;22.20;99.90
32534;DHT22;18973;48.580;8.912;2022-07-29T12:23:05;22.00;99.90
32534;DHT22;18973;48.580;8.912;2022-07-29T12:25:33;22.10;99.90
32534;DHT22;18973;48.580;8.912;2022-07-29T12:28:06;22.20;99.90
32534;DHT22;18973;48.580;8.912;2022-07-29T12:30:41;22.20;99.90
32534;DHT22;18973;48.580;8.912;2022-07-29T12:33:12;22.30;99.90
32534;DHT22;18973;48.580;8.912;2022-07-29T12:35:38;22.40;99.90
32534;DHT22;18973;48.580;8.912;2022-07-29T12:38:04;22.40;99.90
32534;DHT22;18973;48.580;8.912;2022-07-29T12:40:30;22.40;99.90
32534;DHT22;18973;48.580;8.912;2022-07-29T12:43:18;22.50;99.90
32534;DHT22;18973;48.580;8.912;2022-07-29T12:45:49;22.60;99.90
32534;DHT22;18973;48.580;8.912;2022-07-29T12:48:42;22.50;99.90
32534;DHT22;18973;48.580;8.912;2022-07-29T12:51:09;22.40;99.90
32534;DHT22;18973;48.580;8.912;2022-07-29T12:53:38;22.10;99.90
32534;DHT22;18973;48.580;8.912;2022-07-29T12:56:05;22.00;99.90
32534;DHT22;18973;48.580;8.912;2022-07-29T13:01:13;22.10;99.90
32534;DHT22;18973;48.580;8.912;2022-07-29T13:03:52;22.10;99.90
32534;DHT22;18973;48.580;8.912;2022-07-29T13:06:41;22.00;99.90
32534;DHT22;18973;48.580;8.912;2022-07-29T13:09:16;22.10;99.90
32534;DHT22;18973;48.580;8.912;2022-07-29T13:11:48;22.10;99.90
32534;DHT22;18973;48.580;8.912;2022-07-29T13:14:32;22.20;99.90
32534;DHT22;18973;48.580;8.912;2022-07-29T13:19:39;22.30;99.90
32534;DHT22;18973;48.580;8.912;2022-07-29T13:22:09;22.40;99.90
32534;DHT22;18973;48.580;8.912;2022-07-29T13:24:49;22.50;99.90
32534;DHT22;18973;48.580;8.912;2022-07-29T13:27:25;22.70;99.90
32534;DHT22;18973;48.580;8.912;2022-07-29T13:29:52;22.80;99.90
32534;DHT22;18973;48.580;8.912;2022-07-29T13:32:21;22.60;99.90
32534;DHT22;18973;48.580;8.912;2022-07-29T13:34:47;22.50;99.90
32534;DHT22;18973;48.580;8.912;2022-07-29T13:37:13;22.70;99.90
32534;DHT22;18973;48.580;8.912;2022-07-29T13:39:39;22.80;99.90
32534;DHT22;18973;48.580;8.912;2022-07-29T13:42:06;22.90;99.90
32534;DHT22;18973;48.580;8.912;2022-07-29T13:44:33;22.90;99.90
32534;DHT22;18973;48.580;8.912;2022-07-29T13:46:59;23.00;99.90
32534;DHT22;18973;48.580;8.912;2022-07-29T13:49:25;23.10;99.90
32534;DHT22;18973;48.580;8.912;2022-07-29T13:51:51;23.10;99.90
32534;DHT22;18973;48.580;8.912;2022-07-29T13:54:17;22.90;99.90
32534;DHT22;18973;48.580;8.912;2022-07-29T13:56:42;23.00;99.90
32534;DHT22;18973;48.580;8.912;2022-07-29T13:59:08;23.00;99.90
32534;DHT22;18973;48.580;8.912;2022-07-29T14:01:35;22.80;99.90
32534;DHT22;18973;48.580;8.912;2022-07-29T14:04:01;22.80;99.90
32534;DHT22;18973;48.580;8.912;2022-07-29T14:06:26;23.00;99.90
32534;DHT22;18973;48.580;8.912;2022-07-29T14:08:52;23.10;99.90
32534;DHT22;18973;48.580;8.912;2022-07-29T14:11:18;23.20;99.90
32534;DHT22;18973;48.580;8.912;2022-07-29T14:13:44;23.30;99.90
32534;DHT22;18973;48.580;8.912;2022-07-29T14:16:10;23.10;99.90
32534;DHT22;18973;48.580;8.912;2022-07-29T14:18:36;23.00;99.90
32534;DHT22;18973;48.580;8.912;2022-07-29T14:21:02;22.80;99.90
32534;DHT22;18973;48.580;8.912;2022-07-29T14:23:28;22.90;99.90
32534;DHT22;18973;48.580;8.912;2022-07-29T14:25:54;22.90;99.90
32534;DHT22;18973;48.580;8.912;2022-07-29T14:28:20;23.10;99.90
32534;DHT22;18973;48.580;8.912;2022-07-29T14:30:45;22.80;99.90
32534;DHT22;18973;48.580;8.912;2022-07-29T14:33:12;22.90;99.90
32534;DHT22;18973;48.580;8.912;2022-07-29T14:35:38;22.90;99.90
32534;DHT22;18973;48.580;8.912;2022-07-29T14:38:04;23.20;99.90
32534;DHT22;18973;48.580;8.912;2022-07-29T14:40:30;23.40;99.90
32534;DHT22;18973;48.580;8.912;2022-07-29T14:42:56;23.50;99.90
32534;DHT22;18973;48.580;8.912;2022-07-29T14:45:22;23.50;99.90
32534;DHT22;18973;48.580;8.912;2022-07-29T14:47:48;23.50;99.90
32534;DHT22;18973;48.580;8.912;2022-07-29T14:50:15;23.30;99.90
32534;DHT22;18973;48.580;8.912;2022-07-29T14:52:41;23.30;99.90
32534;DHT22;18973;48.580;8.912;2022-07-29T14:55:07;23.30;99.90
32534;DHT22;18973;48.580;8.912;2022-07-29T14:57:33;23.30;99.90
32534;DHT22;18973;48.580;8.912;2022-07-29T14:59:59;23.30;99.90
32534;DHT22;18973;48.580;8.912;2022-07-29T15:02:24;23.30;99.90
32534;DHT22;18973;48.580;8.912;2022-07-29T15:04:51;23.30;99.90
32534;DHT22;18973;48.580;8.912;2022-07-29T15:07:16;23.40;99.90
32534;DHT22;18973;48.580;8.912;2022-07-29T15:09:43;23.40;99.90
32534;DHT22;18973;48.580;8.912;2022-07-29T15:12:11;23.30;99.90
32534;DHT22;18973;48.580;8.912;2022-07-29T15:14:37;23.30;99.90
32534;DHT22;18973;48.580;8.912;2022-07-29T15:17:03;23.20;99.90
32534;DHT22;18973;48.580;8.912;2022-07-29T15:19:29;23.20;99.90
32534;DHT22;18973;48.580;8.912;2022-07-29T15:21:54;23.20;99.90
32534;DHT22;18973;48.580;8.912;2022-07-29T15:24:20;23.30;99.90
32534;DHT22;18973;48.580;8.912;2022-07-29T15:26:46;23.30;99.90
32534;DHT22;18973;48.580;8.912;2022-07-29T15:29:13;23.30;99.90
32534;DHT22;18973;48.580;8.912;2022-07-29T15:31:39;23.30;99.90
32534;DHT22;18973;48.580;8.912;2022-07-29T15:34:05;23.30;99.90
32534;DHT22;18973;48.580;8.912;2022-07-29T15:36:31;23.30;99.90
32534;DHT22;18973;48.580;8.912;2022-07-29T15:38:57;23.30;99.90
32534;DHT22;18973;48.580;8.912;2022-07-29T15:41:23;23.30;99.90
32534;DHT22;18973;48.580;8.912;2022-07-29T15:43:49;23.40;99.90
32534;DHT22;18973;48.580;8.912;2022-07-29T15:46:17;23.50;99.90
32534;DHT22;18973;48.580;8.912;2022-07-29T15:49:03;23.60;99.90
32534;DHT22;18973;48.580;8.912;2022-07-29T15:51:29;23.70;99.90
32534;DHT22;18973;48.580;8.912;2022-07-29T15:53:55;23.70;99.90
32534;DHT22;18973;48.580;8.912;2022-07-29T15:56:21;23.70;99.90
32534;DHT22;18973;48.580;8.912;2022-07-29T15:58:47;23.80;99.90
32534;DHT22;18973;48.580;8.912;2022-07-29T16:01:13;23.80;99.90
32534;DHT22;18973;48.580;8.912;2022-07-29T16:03:39;23.90;99.90
32534;DHT22;18973;48.580;8.912;2022-07-29T16:06:04;23.90;99.90
32534;DHT22;18973;48.580;8.912;2022-07-29T16:08:30;24.00;99.90
32534;DHT22;18973;48.580;8.912;2022-07-29T16:10:56;24.00;99.90
32534;DHT22;18973;48.580;8.912;2022-07-29T16:13:22;24.00;99.90
32534;DHT22;18973;48.580;8.912;2022-07-29T16:15:48;24.10;99.90
32534;DHT22;18973;48.580;8.912;2022-07-29T16:18:13;24.00;99.90
32534;DHT22;18973;48.580;8.912;2022-07-29T16:20:40;24.10;99.90
32534;DHT22;18973;48.580;8.912;2022-07-29T16:23:06;24.10;99.90
32534;DHT22;18973;48.580;8.912;2022-07-29T16:25:34;24.10;99.90
32534;DHT22;18973;48.580;8.912;2022-07-29T16:28:01;24.10;99.90
32534;DHT22;18973;48.580;8.912;2022-07-29T16:30:26;24.10;99.90
32534;DHT22;18973;48.580;8.912;2022-07-29T16:32:52;23.90;99.90
32534;DHT22;18973;48.580;8.912;2022-07-29T16:35:18;23.90;99.90
32534;DHT22;18973;48.580;8.912;2022-07-29T16:37:44;24.00;99.90